Woodbine, Illinois
Current Conditions -  °F | °C
As of 1:15 PM on Friday 28 Nov 2014 (Local Time) from KSFY Reporting Station
Clear Clear  
Wind Chill: 24°   Ceiling: Unl
Heat Index: 31°   Visibility: 10mi
Dew Point: 24°   Wind: 7mph
Humidity: 75%   Direction: 150°SSE
Pressure: 29.98"   Gusts: NA
Location:  42.3424°N, 90.0324°W
Report Text: KSFY 281915Z AUTO 15006KT 10SM CLR 00/M04 A2998 RMK AO2 T10051044
Loading
Personal Weather Stations






























Interactive Weather Map New forecast layout! Learn more

10-Day Weather Forecast

Advertisements
Track Severe Weather on mobile